Time;durP1;ratioP1;P1;durP2;ratioP2;P2;SDS_P1;SDS_P2;PMS_P1;PMS_P2;Temp;Humidity;BMP_temperature;BMP_pressure;BME280_temperature;BME280_humidity;BME280_pressure;Samples;Min_cycle;Max_cycle;Signal;HPM_P1;HPM_P2
2022/01/04 00:00:20;;;;;;;6.77;3.73;;;;;;;4.18;100.00;99457.50;4940515;28;20057;-83
2022/01/04 00:02:47;;;;;;;7.17;3.43;;;;;;;4.19;100.00;99450.53;4968524;28;20073;-83
2022/01/04 00:05:16;;;;;;;7.53;3.47;;;;;;;4.33;100.00;99451.22;4955391;28;20051;-82
2022/01/04 00:07:42;;;;;;;10.57;3.80;;;;;;;4.45;100.00;99453.63;4936342;28;20051;-84
2022/01/04 00:10:09;;;;;;;8.80;3.53;;;;;;;4.56;100.00;99450.00;4954153;28;20046;-84
2022/01/04 00:15:22;;;;;;;5.40;3.17;;;;;;;4.61;100.00;99432.47;4955277;28;20055;-83
2022/01/04 00:17:49;;;;;;;6.10;3.60;;;;;;;4.78;100.00;99440.91;4939728;28;20061;-83
2022/01/04 00:20:18;;;;;;;6.27;3.70;;;;;;;4.91;100.00;99429.34;4958680;28;20428;-83
2022/01/04 00:22:48;;;;;;;7.33;3.77;;;;;;;4.87;100.00;99419.81;4954910;28;20051;-83
2022/01/04 00:25:16;;;;;;;7.47;3.43;;;;;;;4.96;100.00;99413.56;4957494;28;20057;-83
2022/01/04 00:27:48;;;;;;;5.80;3.00;;;;;;;5.00;100.00;99429.19;4971228;28;20046;-82
2022/01/04 00:30:15;;;;;;;9.73;3.20;;;;;;;5.05;100.00;99423.91;4956275;28;20046;-83
2022/01/04 00:32:42;;;;;;;5.63;2.97;;;;;;;5.04;100.00;99430.00;4954254;28;20061;-83
2022/01/04 00:35:09;;;;;;;10.40;3.90;;;;;;;5.11;100.00;99417.66;4952530;28;20521;-82
2022/01/04 00:37:35;;;;;;;7.20;3.63;;;;;;;5.20;100.00;99413.13;4937061;28;20661;-82
2022/01/04 00:40:07;;;;;;;6.00;2.70;;;;;;;5.20;100.00;99407.88;4947105;28;20093;-83
2022/01/04 00:42:34;;;;;;;6.20;2.83;;;;;;;5.18;100.00;99411.44;4928670;28;20078;-82
2022/01/04 00:45:01;;;;;;;4.30;2.70;;;;;;;5.26;100.00;99407.78;4936101;28;20447;-83
2022/01/04 00:47:40;;;;;;;8.53;3.00;;;;;;;5.33;100.00;99400.66;4944936;28;20039;-83
2022/01/04 00:50:07;;;;;;;4.07;2.60;;;;;;;5.30;100.00;99398.97;4956812;28;20046;-83
2022/01/04 00:52:34;;;;;;;6.90;2.67;;;;;;;5.37;100.00;99397.09;4953838;28;20057;-84
2022/01/04 00:55:03;;;;;;;4.80;2.80;;;;;;;5.39;100.00;99391.84;4963199;28;20046;-83
2022/01/04 00:57:30;;;;;;;5.33;2.37;;;;;;;5.41;100.00;99393.53;4945975;28;20401;-83
2022/01/04 00:59:57;;;;;;;5.77;3.23;;;;;;;5.41;100.00;99395.28;4951824;28;20065;-84
2022/01/04 01:02:23;;;;;;;6.20;2.80;;;;;;;5.47;100.00;99393.41;4946258;28;20461;-82
2022/01/04 01:04:50;;;;;;;8.30;3.23;;;;;;;5.48;100.00;99384.66;4956596;28;20147;-83
2022/01/04 01:07:18;;;;;;;5.20;2.60;;;;;;;5.43;100.00;99381.25;4922570;28;20047;-83
2022/01/04 01:10:02;;;;;;;5.00;2.33;;;;;;;5.45;100.00;99368.97;4942703;28;20039;-83
2022/01/04 01:12:28;;;;;;;4.30;2.50;;;;;;;5.43;100.00;99364.69;4957486;28;20042;-83
2022/01/04 01:14:55;;;;;;;5.00;2.23;;;;;;;5.47;100.00;99367.22;4957882;28;20050;-82
2022/01/04 01:17:22;;;;;;;6.67;2.50;;;;;;;5.50;100.00;99367.16;4948668;28;20129;-82
2022/01/04 01:19:48;;;;;;;3.73;2.50;;;;;;;5.46;100.00;99359.38;4955501;28;20043;-83
2022/01/04 01:22:15;;;;;;;4.47;2.50;;;;;;;5.43;100.00;99360.31;4949182;28;20526;-83
2022/01/04 01:24:42;;;;;;;4.90;2.40;;;;;;;5.46;100.00;99346.28;4956873;28;20244;-83
2022/01/04 01:27:08;;;;;;;7.53;2.30;;;;;;;5.42;100.00;99353.34;4938144;28;20046;-83
2022/01/04 01:29:35;;;;;;;6.17;2.50;;;;;;;5.40;100.00;99352.53;4945362;28;20077;-83
2022/01/04 01:32:02;;;;;;;3.23;2.20;;;;;;;5.38;100.00;99343.81;4938879;28;20051;-84
2022/01/04 01:34:29;;;;;;;8.30;3.10;;;;;;;5.40;100.00;99347.28;4959526;28;20047;-83
2022/01/04 01:36:55;;;;;;;3.80;2.57;;;;;;;5.45;100.00;99349.78;4938185;28;20524;-84
2022/01/04 01:39:22;;;;;;;5.20;2.23;;;;;;;5.37;100.00;99337.72;4956007;28;20500;-84
2022/01/04 01:41:49;;;;;;;5.80;2.87;;;;;;;5.40;100.00;99339.44;4955914;28;20520;-83
2022/01/04 01:44:16;;;;;;;5.67;2.57;;;;;;;5.35;100.00;99330.78;4951173;28;20049;-82
2022/01/04 01:46:43;;;;;;;5.90;2.33;;;;;;;5.33;100.00;99336.06;4949666;28;20042;-82
2022/01/04 01:49:09;;;;;;;5.47;2.27;;;;;;;5.29;100.00;99329.16;4946503;28;20049;-84
2022/01/04 01:51:37;;;;;;;5.43;3.00;;;;;;;5.25;100.00;99324.03;4948291;28;20052;-84
2022/01/04 01:54:04;;;;;;;3.50;2.10;;;;;;;5.26;100.00;99323.13;4962780;28;20110;-84
2022/01/04 01:56:31;;;;;;;4.70;2.07;;;;;;;5.24;100.00;99324.91;4945069;28;20047;-84
2022/01/04 01:58:58;;;;;;;4.13;2.53;;;;;;;5.23;100.00;99320.59;4949702;28;20452;-84
2022/01/04 02:01:25;;;;;;;4.20;2.50;;;;;;;5.25;100.00;99322.25;4968094;28;20061;-85
2022/01/04 02:03:52;;;;;;;3.90;2.07;;;;;;;5.24;100.00;99315.31;4973820;28;20057;-84
2022/01/04 02:06:19;;;;;;;7.30;2.50;;;;;;;5.18;100.00;99307.56;4979151;28;20165;-83
2022/01/04 02:08:46;;;;;;;4.07;2.40;;;;;;;5.18;100.00;99309.31;4965001;28;20047;-83
2022/01/04 02:11:12;;;;;;;4.27;2.23;;;;;;;5.17;100.00;99305.84;5016447;23;20042;-83
2022/01/04 02:13:39;;;;;;;7.37;2.30;;;;;;;5.14;100.00;99297.22;4997046;28;20072;-85
2022/01/04 02:16:09;;;;;;;6.17;1.90;;;;;;;5.20;100.00;99292.69;4963160;28;20487;-83
2022/01/04 02:18:36;;;;;;;5.37;2.20;;;;;;;5.11;100.00;99294.63;4961596;28;20092;-83
2022/01/04 02:21:03;;;;;;;3.70;2.10;;;;;;;5.08;100.00;99287.72;4963303;28;20042;-83
2022/01/04 02:23:30;;;;;;;3.77;2.40;;;;;;;5.02;100.00;99288.69;4940577;28;20109;-85
2022/01/04 02:25:56;;;;;;;5.70;2.30;;;;;;;5.00;100.00;99282.63;4975933;28;20042;-84
2022/01/04 02:28:23;;;;;;;4.93;2.23;;;;;;;4.90;100.00;99286.31;4945315;28;20121;-83
2022/01/04 02:30:50;;;;;;;2.43;1.87;;;;;;;4.87;100.00;99275.03;4961071;28;20070;-86
2022/01/04 02:33:17;;;;;;;4.93;2.30;;;;;;;4.78;100.00;99278.69;4960321;28;20046;-84
2022/01/04 02:35:44;;;;;;;5.20;1.97;;;;;;;4.73;100.00;99270.09;4960942;28;20046;-84
2022/01/04 02:38:10;;;;;;;4.37;2.27;;;;;;;4.69;100.00;99268.41;4943839;28;20104;-84
2022/01/04 02:40:37;;;;;;;5.67;2.27;;;;;;;4.66;100.00;99271.09;4960937;28;20519;-84
2022/01/04 02:43:04;;;;;;;4.90;2.17;;;;;;;4.57;100.00;99255.56;4943830;28;20105;-83
2022/01/04 02:45:30;;;;;;;4.63;1.90;;;;;;;4.53;100.00;99258.22;4944939;28;20411;-84
2022/01/04 02:47:58;;;;;;;3.80;1.97;;;;;;;4.45;100.00;99252.28;4943628;28;20038;-83
2022/01/04 02:50:24;;;;;;;4.47;2.20;;;;;;;4.40;100.00;99256.75;4945667;28;20046;-85
2022/01/04 02:52:51;;;;;;;3.43;2.13;;;;;;;4.38;100.00;99248.06;4959844;28;20046;-83
2022/01/04 02:55:18;;;;;;;6.97;2.33;;;;;;;4.35;100.00;99242.88;4960178;28;20038;-83
2022/01/04 02:57:45;;;;;;;5.23;2.57;;;;;;;4.29;100.00;99248.22;4943978;28;20050;-84
2022/01/04 03:00:13;;;;;;;6.70;2.67;;;;;;;4.28;100.00;99256.94;4972947;28;20045;-83
2022/01/04 03:02:41;;;;;;;3.93;2.07;;;;;;;4.21;100.00;99243.13;4948313;28;20046;-83
2022/01/04 03:05:09;;;;;;;4.30;2.03;;;;;;;4.15;100.00;99240.63;4945156;28;20124;-84
2022/01/04 03:07:35;;;;;;;4.83;2.17;;;;;;;4.16;100.00;99244.09;4943240;28;20050;-83
2022/01/04 03:10:05;;;;;;;4.57;2.30;;;;;;;4.12;100.00;99245.91;4945156;28;20043;-85
2022/01/04 03:12:31;;;;;;;7.70;2.63;;;;;;;4.06;100.00;99234.69;4958816;28;20046;-83
2022/01/04 03:14:58;;;;;;;3.73;2.10;;;;;;;4.06;100.00;99238.16;4947578;28;20043;-84
2022/01/04 03:17:25;;;;;;;2.47;2.00;;;;;;;4.04;100.00;99224.28;4959154;28;20042;-83
2022/01/04 03:19:51;;;;;;;4.77;1.90;;;;;;;3.99;100.00;99220.84;4944550;28;20053;-85
2022/01/04 03:22:18;;;;;;;4.60;2.33;;;;;;;3.97;100.00;99216.56;4943242;28;20046;-84
2022/01/04 03:24:44;;;;;;;5.07;2.57;;;;;;;3.92;100.00;99211.41;4938029;28;20711;-84
2022/01/04 03:27:12;;;;;;;5.30;2.13;;;;;;;3.89;100.00;99208.84;4940161;28;20042;-83
2022/01/04 03:29:39;;;;;;;4.90;1.80;;;;;;;3.85;100.00;99201.94;4950773;28;20755;-83
2022/01/04 03:32:06;;;;;;;3.87;2.13;;;;;;;3.86;100.00;99193.19;4942110;28;20042;-83
2022/01/04 03:34:33;;;;;;;3.57;2.10;;;;;;;3.90;100.00;99197.50;4944384;28;20046;-83
2022/01/04 03:37:00;;;;;;;6.73;2.30;;;;;;;3.85;100.00;99200.19;4957462;28;20050;-84
2022/01/04 03:39:27;;;;;;;4.67;2.20;;;;;;;3.82;100.00;99189.78;4959434;28;20711;-83
2022/01/04 03:41:53;;;;;;;4.47;2.20;;;;;;;3.82;100.00;99187.19;4942794;28;20108;-84
2022/01/04 03:44:20;;;;;;;3.97;2.17;;;;;;;3.85;100.00;99176.66;4943781;28;20060;-83
2022/01/04 03:46:48;;;;;;;3.80;2.20;;;;;;;3.88;100.00;99178.38;4958275;28;20048;-83
2022/01/04 03:49:15;;;;;;;4.50;2.30;;;;;;;3.91;100.00;99179.19;4954238;28;20129;-84
2022/01/04 03:51:42;;;;;;;3.67;2.40;;;;;;;4.02;100.00;99183.34;4958012;28;20038;-83
2022/01/04 03:54:09;;;;;;;5.30;2.47;;;;;;;3.99;100.00;99183.41;4968476;28;20069;-82
2022/01/04 03:56:36;;;;;;;3.63;2.63;;;;;;;3.95;100.00;99174.75;4956456;28;20053;-83
2022/01/04 03:59:03;;;;;;;4.30;2.10;;;;;;;3.97;100.00;99177.38;4940218;28;20050;-84
2022/01/04 04:01:30;;;;;;;4.20;2.40;;;;;;;4.02;100.00;99178.13;4954373;28;20056;-83
2022/01/04 04:03:57;;;;;;;7.53;2.50;;;;;;;4.07;100.00;99173.69;4956613;28;20054;-85
2022/01/04 04:06:24;;;;;;;3.27;2.07;;;;;;;4.10;100.00;99165.78;4958425;28;20530;-84
2022/01/04 04:08:51;;;;;;;3.50;2.30;;;;;;;4.10;100.00;99161.41;4958782;28;20047;-83
2022/01/04 04:11:17;;;;;;;3.63;2.40;;;;;;;4.14;100.00;99157.88;4957753;28;20495;-83
2022/01/04 04:13:44;;;;;;;5.07;2.73;;;;;;;4.18;100.00;99159.53;4943906;28;20046;-83
2022/01/04 04:16:11;;;;;;;3.70;2.33;;;;;;;4.23;100.00;99156.84;4954308;28;20058;-84
2022/01/04 04:18:38;;;;;;;3.10;2.10;;;;;;;4.27;100.00;99149.78;4945589;28;20047;-83
2022/01/04 04:21:04;;;;;;;3.70;2.20;;;;;;;4.41;100.00;99148.63;4952020;28;20070;-85
2022/01/04 04:23:31;;;;;;;5.73;2.47;;;;;;;4.50;100.00;99150.22;4943469;28;20070;-84
2022/01/04 04:25:58;;;;;;;3.03;2.00;;;;;;;4.41;100.00;99142.56;4937978;28;20058;-84
2022/01/04 04:28:24;;;;;;;10.37;2.70;;;;;;;4.43;100.00;99143.38;4958613;28;20046;-83
2022/01/04 04:30:51;;;;;;;5.57;2.33;;;;;;;4.44;100.00;99145.94;4932747;28;20051;-83
2022/01/04 04:33:18;;;;;;;4.37;1.93;;;;;;;4.57;100.00;99138.72;4954745;28;20058;-83
2022/01/04 04:35:45;;;;;;;3.60;2.23;;;;;;;4.59;100.00;99130.84;4940113;28;20061;-84
2022/01/04 04:38:11;;;;;;;6.63;2.40;;;;;;;4.58;100.00;99132.59;4941016;28;20460;-85
2022/01/04 04:40:38;;;;;;;3.63;2.40;;;;;;;4.55;100.00;99127.44;4954680;28;20035;-81
2022/01/04 04:43:06;;;;;;;3.97;1.97;;;;;;;4.53;100.00;99132.69;4955216;28;20426;-81
2022/01/04 04:45:32;;;;;;;4.10;1.90;;;;;;;4.60;100.00;99133.44;4958832;28;20042;-81
2022/01/04 04:47:59;;;;;;;3.27;1.63;;;;;;;4.49;100.00;99123.19;4974175;28;20042;-81
2022/01/04 04:50:26;;;;;;;2.37;1.87;;;;;;;4.49;100.00;99115.34;4973682;28;20041;-81
2022/01/04 04:52:53;;;;;;;5.97;2.03;;;;;;;4.53;100.00;99121.38;4954365;28;20555;-81
2022/01/04 04:55:19;;;;;;;3.33;1.80;;;;;;;4.49;100.00;99111.88;4967698;28;20035;-81
2022/01/04 04:57:46;;;;;;;5.67;2.00;;;;;;;4.55;100.00;99109.16;4941680;28;20050;-81
2022/01/04 05:00:13;;;;;;;4.07;1.67;;;;;;;4.51;100.00;99112.69;4943694;28;20101;-81
2022/01/04 05:02:40;;;;;;;4.20;1.90;;;;;;;4.46;100.00;99107.56;4956999;28;20070;-82
2022/01/04 05:05:08;;;;;;;2.80;1.80;;;;;;;4.55;100.00;99103.06;4943190;28;20504;-81
2022/01/04 05:07:35;;;;;;;6.23;2.83;;;;;;;4.50;100.00;99088.31;4938736;28;20153;-82
2022/01/04 05:10:06;;;;;;;5.03;2.70;;;;;;;4.44;100.00;99083.19;4972212;28;20443;-83
2022/01/04 05:12:32;;;;;;;4.70;2.03;;;;;;;4.38;100.00;99079.88;4938502;28;20053;-82
2022/01/04 05:14:59;;;;;;;5.07;2.13;;;;;;;4.37;100.00;99079.00;4957536;28;20046;-81
2022/01/04 05:17:26;;;;;;;4.30;1.90;;;;;;;4.34;100.00;99084.28;4956405;28;20155;-83
2022/01/04 05:19:52;;;;;;;5.03;2.30;;;;;;;4.32;100.00;99066.91;4941947;28;20121;-85
2022/01/04 05:22:19;;;;;;;3.73;1.60;;;;;;;4.28;100.00;99060.00;4938157;28;20043;-84
2022/01/04 05:24:46;;;;;;;3.33;1.90;;;;;;;4.27;100.00;99061.75;4959529;28;20050;-84
2022/01/04 05:27:13;;;;;;;3.27;2.20;;;;;;;4.22;100.00;99058.41;4955878;28;20129;-84
2022/01/04 05:29:40;;;;;;;2.70;1.80;;;;;;;4.21;100.00;99054.06;4939343;28;20284;-84
2022/01/04 05:32:07;;;;;;;3.47;1.63;;;;;;;4.19;100.00;99050.59;4935492;28;20050;-84
2022/01/04 05:34:33;;;;;;;3.20;1.70;;;;;;;4.15;100.00;99051.56;4940915;28;20054;-83
2022/01/04 05:37:01;;;;;;;3.60;2.10;;;;;;;4.13;100.00;99043.78;4957933;28;20054;-83
2022/01/04 05:39:28;;;;;;;5.13;2.20;;;;;;;4.11;100.00;99044.66;4952557;28;20035;-84
2022/01/04 05:41:55;;;;;;;4.43;1.93;;;;;;;4.11;100.00;99042.06;4951069;28;20053;-83
2022/01/04 05:44:22;;;;;;;3.00;2.17;;;;;;;4.08;100.00;99050.84;4940950;28;20056;-84
2022/01/04 05:46:49;;;;;;;3.10;2.20;;;;;;;4.05;100.00;99040.44;4936419;28;20047;-83
2022/01/04 05:49:16;;;;;;;3.53;1.77;;;;;;;4.03;100.00;99034.38;4982118;28;20122;-83
2022/01/04 05:51:43;;;;;;;5.40;2.00;;;;;;;4.04;100.00;99033.50;4971304;28;20043;-86
2022/01/04 05:54:10;;;;;;;4.43;2.50;;;;;;;4.08;100.00;99045.59;4944246;28;20076;-85
2022/01/04 05:56:37;;;;;;;4.53;2.30;;;;;;;4.10;100.00;99038.59;4940123;28;20050;-84
2022/01/04 05:59:03;;;;;;;3.83;2.00;;;;;;;4.09;100.00;99036.00;4942326;28;20066;-84
2022/01/04 06:01:30;;;;;;;2.80;2.00;;;;;;;4.09;100.00;99028.16;4937501;28;20050;-86
2022/01/04 06:03:57;;;;;;;2.33;1.80;;;;;;;4.11;100.00;99015.94;4964633;28;20516;-86
2022/01/04 06:06:23;;;;;;;4.33;1.90;;;;;;;4.09;100.00;99013.34;4945870;28;20054;-82
2022/01/04 06:08:52;;;;;;;3.87;2.07;;;;;;;4.08;100.00;99001.19;4947655;28;20077;-84
2022/01/04 06:11:32;;;;;;;2.93;1.97;;;;;;;4.04;100.00;99004.75;4956737;28;20070;-84
2022/01/04 06:16:51;;;;;;;4.47;2.07;;;;;;;4.04;100.00;98985.63;4951634;28;20056;-86
2022/01/04 06:19:18;;;;;;;3.93;2.20;;;;;;;4.11;100.00;98985.41;4951247;28;20114;-85
2022/01/04 06:21:45;;;;;;;3.67;1.90;;;;;;;4.11;100.00;98974.09;4953621;28;20057;-85
2022/01/04 06:24:11;;;;;;;3.73;2.10;;;;;;;4.08;100.00;98985.50;4931526;28;20473;-85
2022/01/04 06:26:41;;;;;;;2.73;1.33;;;;;;;4.07;100.00;98973.31;4938194;28;20128;-84
2022/01/04 06:29:10;;;;;;;5.60;2.33;;;;;;;4.09;100.00;98978.50;4959836;28;20054;-85
2022/01/04 06:31:39;;;;;;;4.97;2.07;;;;;;;4.12;100.00;98981.94;4929678;28;20110;-85
2022/01/04 06:34:06;;;;;;;5.30;2.17;;;;;;;4.16;100.00;98961.81;4939904;28;20051;-85
2022/01/04 06:36:33;;;;;;;3.77;1.80;;;;;;;4.13;100.00;98954.06;4963664;28;20047;-86
2022/01/04 06:39:05;;;;;;;4.47;2.20;;;;;;;4.15;100.00;98949.66;4950563;28;20058;-85
2022/01/04 06:41:32;;;;;;;5.23;2.53;;;;;;;4.19;100.00;98948.66;4940053;28;20046;-85
2022/01/04 06:43:59;;;;;;;4.10;1.60;;;;;;;4.17;100.00;98950.47;4931953;28;20050;-84
2022/01/04 06:46:26;;;;;;;3.13;2.00;;;;;;;4.19;100.00;98953.91;4958820;28;20048;-84
2022/01/04 06:48:54;;;;;;;3.93;2.00;;;;;;;4.18;100.00;98947.81;4945243;28;20049;-84
2022/01/04 06:51:21;;;;;;;2.83;1.80;;;;;;;4.21;100.00;98952.13;4969428;28;20047;-85
2022/01/04 06:53:48;;;;;;;4.13;2.00;;;;;;;4.25;100.00;98964.22;4945200;28;20043;-83
2022/01/04 06:56:15;;;;;;;4.97;2.50;;;;;;;4.29;100.00;98962.38;4971470;28;20114;-84
2022/01/04 06:58:42;;;;;;;3.20;1.83;;;;;;;4.28;100.00;98958.06;4953807;28;20142;-85
2022/01/04 07:01:09;;;;;;;5.10;2.43;;;;;;;4.31;100.00;98955.41;4959123;28;20118;-83
2022/01/04 07:03:35;;;;;;;4.23;2.00;;;;;;;4.34;100.00;98969.25;4933317;28;20065;-84
2022/01/04 07:06:02;;;;;;;3.47;1.90;;;;;;;4.34;100.00;98952.72;4949549;28;20049;-83
2022/01/04 07:08:29;;;;;;;4.50;2.43;;;;;;;4.34;100.00;98958.78;4960364;28;20502;-83
2022/01/04 07:10:56;;;;;;;6.07;2.77;;;;;;;4.34;100.00;98953.56;4958585;28;20042;-83
2022/01/04 07:13:22;;;;;;;4.00;2.30;;;;;;;4.34;100.00;98958.78;4960066;28;20050;-83
2022/01/04 07:15:52;;;;;;;4.73;2.40;;;;;;;4.37;100.00;98952.63;4960805;28;20043;-83
2022/01/04 07:18:20;;;;;;;5.50;2.47;;;;;;;4.39;100.00;98959.56;4940984;28;20138;-83
2022/01/04 07:20:50;;;;;;;4.63;2.13;;;;;;;4.42;100.00;98963.84;4945757;28;20515;-83
2022/01/04 07:23:16;;;;;;;5.50;2.67;;;;;;;4.41;100.00;98965.59;4959372;28;20526;-82
2022/01/04 07:25:45;;;;;;;4.73;2.50;;;;;;;4.44;100.00;98962.91;4961420;28;20069;-83
2022/01/04 07:28:12;;;;;;;4.53;2.40;;;;;;;4.48;100.00;98972.41;4960152;28;20050;-82
2022/01/04 07:30:38;;;;;;;3.93;2.07;;;;;;;4.49;100.00;98962.81;4976999;28;20093;-83
2022/01/04 07:33:06;;;;;;;7.13;2.43;;;;;;;4.50;100.00;98954.94;4944021;28;20034;-83
2022/01/04 07:35:32;;;;;;;3.00;2.00;;;;;;;4.51;100.00;98948.81;4959622;28;20147;-83
2022/01/04 07:37:59;;;;;;;5.37;2.10;;;;;;;4.56;100.00;98940.88;4943360;28;20046;-83
2022/01/04 07:40:26;;;;;;;5.10;2.50;;;;;;;4.57;100.00;98939.97;4940506;28;20039;-82
2022/01/04 07:42:57;;;;;;;4.70;2.37;;;;;;;4.56;100.00;98933.03;4941831;28;20066;-83
2022/01/04 07:45:24;;;;;;;5.77;2.53;;;;;;;4.65;100.00;98926.72;4947577;28;20137;-84
2022/01/04 07:47:51;;;;;;;5.87;2.30;;;;;;;4.63;100.00;98931.97;4969312;28;20635;-83
2022/01/04 07:50:18;;;;;;;4.13;2.00;;;;;;;4.64;100.00;98933.69;4974610;28;20097;-84
2022/01/04 07:52:44;;;;;;;6.07;2.10;;;;;;;4.64;100.00;98927.59;4959713;28;20093;-83
2022/01/04 07:55:11;;;;;;;4.57;2.33;;;;;;;4.67;100.00;98923.16;4929326;28;20496;-84
2022/01/04 07:57:40;;;;;;;3.80;2.20;;;;;;;4.71;100.00;98929.19;4927592;28;20050;-83
2022/01/04 08:00:08;;;;;;;4.77;2.30;;;;;;;4.71;100.00;98931.78;4944950;28;20100;-83
2022/01/04 08:02:38;;;;;;;3.43;2.60;;;;;;;4.70;100.00;98914.34;4959711;28;20061;-83
2022/01/04 08:05:06;;;;;;;3.60;2.53;;;;;;;4.71;100.00;98906.50;4963227;28;20057;-83
2022/01/04 08:07:32;;;;;;;4.40;2.43;;;;;;;4.75;100.00;98902.88;4943069;28;20050;-82
2022/01/04 08:09:59;;;;;;;3.50;1.97;;;;;;;4.78;100.00;98901.94;4960326;28;20056;-83
2022/01/04 08:12:26;;;;;;;4.37;2.10;;;;;;;4.84;100.00;98900.94;4959426;28;20047;-83
2022/01/04 08:14:54;;;;;;;4.67;2.80;;;;;;;4.86;100.00;98905.22;4946828;28;20046;-83
2022/01/04 08:17:21;;;;;;;4.93;2.70;;;;;;;4.92;100.00;98884.16;4951693;28;20054;-82
2022/01/04 08:19:50;;;;;;;5.67;2.97;;;;;;;4.92;100.00;98881.53;4944477;28;20084;-83
2022/01/04 08:22:18;;;;;;;5.67;2.67;;;;;;;4.96;100.00;98885.81;4958758;28;20046;-84
2022/01/04 08:24:44;;;;;;;4.60;2.20;;;;;;;4.97;100.00;98884.03;4944038;28;20504;-83
2022/01/04 08:27:14;;;;;;;3.17;2.13;;;;;;;5.01;100.00;98885.66;4958417;28;20130;-83
2022/01/04 08:29:41;;;;;;;6.40;2.20;;;;;;;5.11;100.00;98878.41;4942526;28;20065;-83
2022/01/04 08:32:09;;;;;;;3.07;1.90;;;;;;;5.08;100.00;98895.94;4966722;28;20709;-83
2022/01/04 08:34:36;;;;;;;5.10;2.27;;;;;;;5.15;100.00;98901.88;4945487;28;20050;-83
2022/01/04 08:37:03;;;;;;;6.03;2.57;;;;;;;5.12;100.00;98895.84;4974401;28;20047;-83
2022/01/04 08:39:30;;;;;;;3.77;2.17;;;;;;;5.11;100.00;98900.22;4960420;28;20058;-84
2022/01/04 08:42:01;;;;;;;4.10;2.07;;;;;;;5.13;100.00;98901.06;4956890;28;20129;-83
2022/01/04 08:44:29;;;;;;;3.87;2.13;;;;;;;5.14;100.00;98884.44;4944377;28;20069;-85
2022/01/04 08:46:58;;;;;;;5.53;2.67;;;;;;;5.19;100.00;98890.41;4955772;28;20599;-83
2022/01/04 08:49:25;;;;;;;4.47;2.70;;;;;;;5.20;100.00;98892.13;4940241;28;20085;-84
2022/01/04 08:51:55;;;;;;;5.80;2.53;;;;;;;5.20;100.00;98872.94;4943169;28;20061;-84
2022/01/04 08:54:22;;;;;;;4.73;2.70;;;;;;;5.24;100.00;98864.13;4942295;28;20050;-84
2022/01/04 08:56:48;;;;;;;3.63;2.60;;;;;;;5.26;100.00;98852.69;4942192;28;20698;-83
2022/01/04 08:59:16;;;;;;;5.53;3.03;;;;;;;5.29;100.00;98856.97;4940963;28;20042;-83
2022/01/04 09:01:43;;;;;;;5.23;2.30;;;;;;;5.31;100.00;98866.53;4928507;28;20519;-83
2022/01/04 09:04:10;;;;;;;7.07;2.97;;;;;;;5.34;100.00;98852.47;4945989;28;20054;-83
2022/01/04 09:06:38;;;;;;;6.10;2.50;;;;;;;5.30;100.00;98846.47;4955141;28;20408;-83
2022/01/04 09:09:05;;;;;;;6.63;2.90;;;;;;;5.33;100.00;98848.16;4953444;28;20218;-83
2022/01/04 09:11:32;;;;;;;5.37;2.90;;;;;;;5.32;100.00;98842.06;4949640;28;20101;-83
2022/01/04 09:19:25;;;;;;;4.83;2.60;;;;;;;5.42;100.00;98818.22;4975804;28;20061;-83
2022/01/04 09:21:52;;;;;;;3.90;2.67;;;;;;;5.43;100.00;98810.31;4953411;28;20106;-84
2022/01/04 09:24:20;;;;;;;6.20;2.93;;;;;;;5.50;100.00;98826.72;4958207;28;20053;-83
2022/01/04 09:26:47;;;;;;;5.80;2.60;;;;;;;5.50;100.00;98831.94;4972957;28;20042;-84
2022/01/04 09:29:19;;;;;;;7.03;3.10;;;;;;;5.49;100.00;98831.09;4958558;28;20579;-84
2022/01/04 09:31:50;;;;;;;5.57;2.93;;;;;;;5.52;100.00;98817.91;4956145;28;20342;-83
2022/01/04 09:34:20;;;;;;;9.30;2.83;;;;;;;5.53;100.00;98810.88;4949370;28;20066;-82
2022/01/04 09:36:48;;;;;;;7.53;3.23;;;;;;;5.55;100.00;98806.47;4964630;28;20058;-83
2022/01/04 09:39:17;;;;;;;20.07;8.07;;;;;;;5.55;100.00;98807.34;4964476;28;20553;-84
2022/01/04 09:41:44;;;;;;;7.37;4.07;;;;;;;5.56;100.00;98819.53;4956298;28;20050;-84
2022/01/04 09:44:12;;;;;;;5.87;3.20;;;;;;;5.60;100.00;98813.28;4961380;28;20542;-84
2022/01/04 09:46:40;;;;;;;3.83;2.60;;;;;;;5.59;100.00;98798.47;4941340;28;20080;-84
2022/01/04 09:49:09;;;;;;;8.70;2.70;;;;;;;5.62;100.00;98803.59;4939494;28;20070;-84
2022/01/04 09:51:38;;;;;;;4.40;3.03;;;;;;;5.60;100.00;98784.47;4942247;28;20042;-83
2022/01/04 09:54:05;;;;;;;5.43;2.67;;;;;;;5.60;100.00;98781.84;4955204;28;20050;-82
2022/01/04 09:56:32;;;;;;;5.83;2.80;;;;;;;5.70;100.00;98784.19;4938084;28;20542;-83
2022/01/04 09:58:59;;;;;;;4.60;2.50;;;;;;;5.64;100.00;98788.72;4959332;28;20054;-84
2022/01/04 10:01:29;;;;;;;3.53;2.60;;;;;;;5.64;100.00;98780.00;4954853;28;20042;-84
2022/01/04 10:04:16;;;;;;;3.70;2.80;;;;;;;5.62;100.00;98787.91;4961820;28;20121;-83
2022/01/04 10:07:04;;;;;;;4.53;2.87;;;;;;;5.74;100.00;98784.06;4955433;28;20534;-81
2022/01/04 10:09:38;;;;;;;4.73;3.00;;;;;;;5.87;100.00;98792.38;4943591;28;20054;-83
2022/01/04 10:12:10;;;;;;;5.15;2.75;;;;;;;5.73;100.00;98777.09;4971639;28;20039;-83
2022/01/04 10:14:41;;;;;;;4.23;2.37;;;;;;;5.71;100.00;98770.19;4962757;28;20524;-83
2022/01/04 10:17:14;;;;;;;6.47;3.60;;;;;;;5.73;100.00;98753.53;4978777;28;20434;-81
2022/01/04 10:19:48;;;;;;;6.40;5.13;;;;;;;5.74;100.00;98742.13;4964041;28;20060;-81
2022/01/04 10:22:27;;;;;;;6.53;5.70;;;;;;;5.74;100.00;98738.66;4941840;28;20496;-83
2022/01/04 10:25:00;;;;;;;4.43;2.73;;;;;;;5.78;100.00;98714.06;4959956;28;20138;-83
2022/01/04 10:27:31;;;;;;;4.47;2.43;;;;;;;5.80;100.00;98717.47;4967784;28;20114;-82
2022/01/04 10:30:27;;;;;;;6.40;3.40;;;;;;;5.84;100.00;98719.97;4957616;28;20055;-84
2022/01/04 10:33:13;;;;;;;4.50;3.47;;;;;;;5.86;100.00;98719.91;4953843;28;20050;-83
2022/01/04 10:35:47;;;;;;;5.17;4.17;;;;;;;5.88;100.00;98711.09;4956493;28;20656;-83
2022/01/04 10:38:26;;;;;;;3.60;2.60;;;;;;;5.93;100.00;98705.75;4951653;28;20606;-83
2022/01/04 10:41:07;;;;;;;4.23;2.70;;;;;;;5.93;100.00;98700.50;4926955;28;20035;-84
2022/01/04 10:43:39;;;;;;;3.37;2.30;;;;;;;5.95;100.00;98708.31;4950056;28;20061;-83
2022/01/04 10:46:17;;;;;;;3.73;2.30;;;;;;;5.96;100.00;98716.13;4954915;28;20109;-83
2022/01/04 10:48:46;;;;;;;3.35;2.38;;;;;;;5.97;100.00;98711.72;4946202;28;20046;-84
2022/01/04 10:51:15;;;;;;;4.23;2.47;;;;;;;5.98;100.00;98709.09;4942652;28;20071;-82
2022/01/04 10:53:50;;;;;;;3.87;2.40;;;;;;;6.01;100.00;98714.22;4975166;28;20574;-84
2022/01/04 10:56:38;;;;;;;3.70;2.77;;;;;;;6.01;100.00;98722.06;4942486;28;20053;-84
2022/01/04 10:59:10;;;;;;;4.10;2.53;;;;;;;6.03;100.00;98719.41;4959054;28;20423;-84
2022/01/04 11:01:45;;;;;;;5.30;3.20;;;;;;;6.04;100.00;98708.00;4954960;28;20050;-83
2022/01/04 11:04:17;;;;;;;5.50;3.00;;;;;;;6.03;100.00;98712.38;4958951;28;20490;-84
2022/01/04 11:06:47;;;;;;;5.57;3.07;;;;;;;6.04;100.00;98713.25;4939260;28;20050;-85
2022/01/04 11:09:22;;;;;;;6.77;2.83;;;;;;;6.07;100.00;98715.78;4923344;28;20078;-85
2022/01/04 11:11:57;;;;;;;4.10;2.50;;;;;;;6.08;100.00;98710.47;4928502;28;20481;-84
2022/01/04 11:14:27;;;;;;;5.30;2.73;;;;;;;6.08;100.00;98712.25;4939884;28;20833;-85
2022/01/04 11:16:54;;;;;;;4.73;2.20;;;;;;;6.05;100.00;98707.94;4953755;28;20097;-84
2022/01/04 11:19:21;;;;;;;3.87;2.40;;;;;;;6.09;100.00;98713.97;4943143;28;20042;-84
2022/01/04 11:21:48;;;;;;;4.87;2.70;;;;;;;6.06;100.00;98708.81;4933843;28;20134;-83
2022/01/04 11:24:23;;;;;;;5.07;2.77;;;;;;;6.10;100.00;98705.19;4956138;28;20388;-84
2022/01/04 11:26:59;;;;;;;5.90;3.40;;;;;;;6.07;100.00;98702.69;4940392;28;20508;-84
2022/01/04 11:29:28;;;;;;;7.77;3.67;;;;;;;6.06;100.00;98691.34;4979356;28;20313;-84
2022/01/04 11:32:08;;;;;;;5.43;2.77;;;;;;;6.07;100.00;98692.19;4921741;28;20046;-85
2022/01/04 11:34:57;;;;;;;5.33;3.20;;;;;;;6.10;100.00;98673.72;4923195;28;20059;-83
2022/01/04 11:37:24;;;;;;;4.73;2.40;;;;;;;6.10;100.00;98671.09;4953701;28;20049;-84
2022/01/04 11:39:52;;;;;;;3.40;2.10;;;;;;;6.12;100.00;98662.25;4957779;28;20047;-83
2022/01/04 11:42:30;;;;;;;5.17;2.00;;;;;;;6.16;100.00;98663.88;4927704;28;20047;-83
2022/01/04 11:44:58;;;;;;;2.50;1.87;;;;;;;6.18;100.00;98656.81;4938978;28;20047;-84
2022/01/04 11:47:30;;;;;;;4.27;2.20;;;;;;;6.19;100.00;98649.81;4922427;28;20449;-85
2022/01/04 11:50:16;;;;;;;3.57;1.90;;;;;;;6.22;100.00;98647.06;4939102;28;20141;-85